createdAt,value
2022-10-10T00:00:53.930Z,144.02
2022-10-10T00:01:53.943Z,144.65
2022-10-10T00:02:53.937Z,144.02
2022-10-10T00:03:53.896Z,143.90
2022-10-10T00:04:53.884Z,145.65
2022-10-10T00:05:53.868Z,145.15
2022-10-10T00:06:53.854Z,146.03
2022-10-10T00:07:53.876Z,146.93
2022-10-10T00:08:53.831Z,146.54
2022-10-10T00:09:53.807Z,147.19
2022-10-10T00:10:54.965Z,148.10
2022-10-10T00:11:53.805Z,148.89
2022-10-10T00:12:53.872Z,148.10
2022-10-10T00:13:53.758Z,149.55
2022-10-10T00:14:53.750Z,149.42
2022-10-10T00:15:53.747Z,149.42
2022-10-10T00:16:53.744Z,150.09
2022-10-10T00:17:53.729Z,149.69
2022-10-10T00:18:53.715Z,149.96
2022-10-10T00:19:53.686Z,149.69
2022-10-10T00:20:53.689Z,149.15
2022-10-10T00:21:53.670Z,149.02
2022-10-10T00:22:54.024Z,148.36
2022-10-10T00:23:53.665Z,148.36
2022-10-10T00:24:53.634Z,147.32
2022-10-10T00:25:53.596Z,148.76
2022-10-10T00:26:53.619Z,146.80
2022-10-10T00:27:53.577Z,147.58
2022-10-10T00:28:53.565Z,147.32
2022-10-10T00:29:53.561Z,145.52
2022-10-10T00:30:53.560Z,144.40
2022-10-10T00:31:53.517Z,144.27
2022-10-10T00:32:53.547Z,144.65
2022-10-10T00:33:53.502Z,145.65
2022-10-10T00:34:53.503Z,146.80
2022-10-10T00:35:53.479Z,146.80
2022-10-10T00:36:53.460Z,147.84
2022-10-10T00:37:53.457Z,147.45
2022-10-10T00:38:53.459Z,148.10
2022-10-10T00:39:53.437Z,147.84
2022-10-10T00:40:53.412Z,147.58
2022-10-10T00:41:53.421Z,147.71
2022-10-10T00:42:53.837Z,147.97
2022-10-10T00:43:53.384Z,146.67
2022-10-10T00:44:53.353Z,146.54
2022-10-10T00:45:53.334Z,146.16
2022-10-10T00:46:53.359Z,146.03
2022-10-10T00:47:53.331Z,145.27
2022-10-10T00:48:53.303Z,146.16
2022-10-10T00:49:53.303Z,145.90
2022-10-10T00:50:53.310Z,146.93
2022-10-10T00:51:53.296Z,147.19
2022-10-10T00:52:53.527Z,149.02
2022-10-10T00:53:53.235Z,149.69
2022-10-10T00:54:53.248Z,150.36
2022-10-10T00:55:53.232Z,149.55
2022-10-10T00:56:53.196Z,150.22
2022-10-10T00:57:53.184Z,150.22
2022-10-10T00:58:53.173Z,148.76
2022-10-10T00:59:53.152Z,147.97
2022-10-10T01:00:53.247Z,149.02
2022-10-10T01:01:53.126Z,147.84
2022-10-10T01:02:53.469Z,146.93
2022-10-10T01:03:53.098Z,145.78
2022-10-10T01:04:53.105Z,144.52
2022-10-10T01:05:53.090Z,143.41
2022-10-10T01:06:53.065Z,143.16
2022-10-10T01:07:53.065Z,141.83
2022-10-10T01:08:53.061Z,140.52
2022-10-10T01:09:53.165Z,139.82
2022-10-10T01:10:53.018Z,139.93
2022-10-10T01:11:53.028Z,139.58
2022-10-10T01:12:53.282Z,139.12
2022-10-10T01:13:52.976Z,137.97
2022-10-10T01:14:52.979Z,136.18
2022-10-10T01:15:52.962Z,135.08
2022-10-10T01:16:52.949Z,134.54
2022-10-10T01:17:52.928Z,133.68
2022-10-10T01:18:52.909Z,132.94
2022-10-10T01:19:52.939Z,132.20
2022-10-10T01:20:52.904Z,132.20
2022-10-10T01:21:52.879Z,131.17
2022-10-10T01:22:53.165Z,131.79
2022-10-10T01:23:52.835Z,131.27
2022-10-10T01:24:52.846Z,130.05
2022-10-10T01:25:52.827Z,129.24
2022-10-10T01:26:52.819Z,129.34
2022-10-10T01:27:52.794Z,129.24
2022-10-10T01:28:52.778Z,129.34
2022-10-10T01:29:52.781Z,129.24
2022-10-10T01:30:52.755Z,128.75
2022-10-10T01:31:52.751Z,130.15
2022-10-10T01:32:53.288Z,130.05
2022-10-10T01:33:52.723Z,130.96
2022-10-10T01:34:52.732Z,131.48
2022-10-10T01:35:52.696Z,132.41
2022-10-10T01:36:52.697Z,133.04
2022-10-10T01:37:52.670Z,133.25
2022-10-10T01:38:52.647Z,134.11
2022-10-10T01:39:52.665Z,134.43
2022-10-10T01:40:52.621Z,135.30
2022-10-10T01:41:52.603Z,134.54
2022-10-10T01:42:52.903Z,134.43
2022-10-10T01:43:52.572Z,134.54
2022-10-10T01:44:52.601Z,134.43
2022-10-10T01:45:52.568Z,134.54
2022-10-10T01:46:52.540Z,134.00
2022-10-10T01:47:52.524Z,133.47
2022-10-10T01:48:52.537Z,133.57
2022-10-10T01:49:52.497Z,133.47
2022-10-10T01:50:52.503Z,132.41
2022-10-10T01:51:52.470Z,132.31
2022-10-10T01:52:52.821Z,131.37
2022-10-10T01:53:52.461Z,130.76
2022-10-10T01:54:52.459Z,130.76
2022-10-10T01:55:52.441Z,131.79
2022-10-10T01:56:52.454Z,130.76
2022-10-10T01:57:52.391Z,130.55
2022-10-10T01:58:52.384Z,129.64
2022-10-10T01:59:52.367Z,129.24
2022-10-10T02:00:52.436Z,128.65
2022-10-10T02:01:52.341Z,127.28
2022-10-10T02:02:52.758Z,126.13
2022-10-10T02:03:52.338Z,124.81
2022-10-10T02:04:52.324Z,123.89
2022-10-10T02:05:52.314Z,123.71
2022-10-10T02:06:52.298Z,122.00
2022-10-10T02:07:52.261Z,120.16
2022-10-10T02:08:52.293Z,119.47
2022-10-10T02:09:52.260Z,117.96
2022-10-10T02:10:52.250Z,116.00
2022-10-10T02:11:52.253Z,115.44
2022-10-10T02:12:52.697Z,114.65
2022-10-10T02:13:52.193Z,112.79
2022-10-10T02:14:52.190Z,110.93
2022-10-10T02:15:52.159Z,109.62
2022-10-10T02:16:52.150Z,108.55
2022-10-10T02:17:52.146Z,106.89
2022-10-10T02:18:52.144Z,105.28
2022-10-10T02:19:52.146Z,104.10
2022-10-10T02:20:52.104Z,102.95
2022-10-10T02:21:52.095Z,101.64
2022-10-10T02:22:52.324Z,100.18
2022-10-10T02:23:52.060Z,99.52
2022-10-10T02:24:52.067Z,98.53
2022-10-10T02:25:52.047Z,97.38
2022-10-10T02:26:52.034Z,97.04
2022-10-10T02:27:52.016Z,95.44
2022-10-10T02:28:52.020Z,95.01
2022-10-10T02:29:51.989Z,94.21
2022-10-10T02:30:51.986Z,95.46
2022-10-10T02:31:51.947Z,94.39
2022-10-10T02:32:52.422Z,94.39
2022-10-10T02:33:51.942Z,93.96
2022-10-10T02:34:51.952Z,93.65
2022-10-10T02:35:51.920Z,93.34
2022-10-10T02:36:51.908Z,93.86
2022-10-10T02:37:51.874Z,93.75
2022-10-10T02:38:51.863Z,92.92
2022-10-10T02:39:51.864Z,92.31
2022-10-10T02:40:51.846Z,91.90
2022-10-10T02:41:51.840Z,92.82
2022-10-10T02:42:52.089Z,92.41
2022-10-10T02:43:51.805Z,91.60
2022-10-10T02:44:51.807Z,91.90
2022-10-10T02:45:51.764Z,91.50
2022-10-10T02:46:51.791Z,91.40
2022-10-10T02:47:51.753Z,91.30
2022-10-10T02:48:51.727Z,90.91
2022-10-10T02:49:51.727Z,91.00
2022-10-10T02:50:51.738Z,90.51
2022-10-10T02:51:51.702Z,90.42
2022-10-10T02:52:52.160Z,90.61
2022-10-10T02:53:51.677Z,90.71
2022-10-10T02:54:51.659Z,91.00
2022-10-10T02:55:51.634Z,90.42
2022-10-10T02:56:51.652Z,90.81
2022-10-10T02:57:51.609Z,90.71
2022-10-10T02:58:51.601Z,90.22
2022-10-10T02:59:51.629Z,89.74
2022-10-10T03:00:51.615Z,89.45
2022-10-10T03:01:51.563Z,89.54
2022-10-10T03:02:51.872Z,89.26
2022-10-10T03:03:51.532Z,89.16
2022-10-10T03:04:51.538Z,88.88
2022-10-10T03:05:51.503Z,88.97
2022-10-10T03:06:51.525Z,88.88
2022-10-10T03:07:51.518Z,88.79
2022-10-10T03:08:51.466Z,88.69
2022-10-10T03:09:51.451Z,88.88
2022-10-10T03:10:51.447Z,89.35
2022-10-10T03:11:51.429Z,89.74
2022-10-10T03:12:51.853Z,89.93
2022-10-10T03:13:51.411Z,90.12
2022-10-10T03:14:51.512Z,90.42
2022-10-10T03:15:51.370Z,90.91
2022-10-10T03:16:51.392Z,91.10
2022-10-10T03:17:51.384Z,91.40
2022-10-10T03:18:51.355Z,91.80
2022-10-10T03:19:51.346Z,92.11
2022-10-10T03:20:51.329Z,92.00
2022-10-10T03:21:51.310Z,92.00
2022-10-10T03:22:51.674Z,92.00
2022-10-10T03:23:51.283Z,92.31
2022-10-10T03:24:51.277Z,92.41
2022-10-10T03:25:51.240Z,93.13
2022-10-10T03:26:51.253Z,92.61
2022-10-10T03:27:51.240Z,93.13
2022-10-10T03:28:51.223Z,92.72
2022-10-10T03:29:51.222Z,93.23
2022-10-10T03:30:51.197Z,93.44
2022-10-10T03:31:51.193Z,93.65
2022-10-10T03:32:51.431Z,93.96
2022-10-10T03:33:51.137Z,94.39
2022-10-10T03:34:51.141Z,94.39
2022-10-10T03:35:51.109Z,94.50
2022-10-10T03:36:51.105Z,94.18
2022-10-10T03:37:51.092Z,93.34
2022-10-10T03:38:51.071Z,93.13
2022-10-10T03:39:51.073Z,92.51
2022-10-10T03:40:51.065Z,92.31
2022-10-10T03:41:51.056Z,91.50
2022-10-10T03:42:51.310Z,91.50
2022-10-10T03:43:51.029Z,91.10
2022-10-10T03:44:51.069Z,90.12
2022-10-10T03:45:50.991Z,90.42
2022-10-10T03:46:50.984Z,89.83
2022-10-10T03:47:51.003Z,89.74
2022-10-10T03:48:50.961Z,88.88
2022-10-10T03:49:50.962Z,88.79
2022-10-10T03:50:50.916Z,88.22
2022-10-10T03:51:50.927Z,87.85
2022-10-10T03:52:51.166Z,87.95
2022-10-10T03:53:50.893Z,87.76
2022-10-10T03:54:50.875Z,87.40
2022-10-10T03:55:50.862Z,86.76
2022-10-10T03:56:50.839Z,87.12
2022-10-10T03:57:50.862Z,87.03
2022-10-10T03:58:50.815Z,86.94
2022-10-10T03:59:50.814Z,86.05
2022-10-10T04:00:50.795Z,86.14
2022-10-10T04:01:50.796Z,85.70
2022-10-10T04:02:51.084Z,85.61
2022-10-10T04:03:52.257Z,85.78
2022-10-10T04:04:50.729Z,85.52
2022-10-10T04:05:50.750Z,85.61
2022-10-10T04:06:50.724Z,85.17
2022-10-10T04:07:50.721Z,84.92
2022-10-10T04:08:50.705Z,84.83
2022-10-10T04:09:50.681Z,85.00
2022-10-10T04:10:50.655Z,85.17
2022-10-10T04:11:50.654Z,84.92
2022-10-10T04:12:50.835Z,85.00
2022-10-10T04:13:50.640Z,84.15
2022-10-10T04:14:50.623Z,84.66
2022-10-10T04:15:50.608Z,85.00
2022-10-10T04:16:50.594Z,84.74
2022-10-10T04:17:50.568Z,85.00
2022-10-10T04:18:50.570Z,85.17
2022-10-10T04:19:50.547Z,85.17
2022-10-10T04:20:50.545Z,85.26
2022-10-10T04:21:50.540Z,85.78
2022-10-10T04:22:50.733Z,85.09
2022-10-10T04:23:50.488Z,85.09
2022-10-10T04:24:50.496Z,85.52
2022-10-10T04:25:50.482Z,85.26
2022-10-10T04:26:50.446Z,85.26
2022-10-10T04:27:50.453Z,84.66
2022-10-10T04:28:50.441Z,84.32
2022-10-10T04:29:50.436Z,83.81
2022-10-10T04:30:50.404Z,84.23
2022-10-10T04:31:50.425Z,84.23
2022-10-10T04:32:50.642Z,84.66
2022-10-10T04:33:50.382Z,84.06
2022-10-10T04:34:50.344Z,84.74
2022-10-10T04:35:50.376Z,84.57
2022-10-10T04:36:50.315Z,85.00
2022-10-10T04:37:50.340Z,85.43
2022-10-10T04:38:50.303Z,85.43
2022-10-10T04:39:50.323Z,85.61
2022-10-10T04:40:50.285Z,85.52
2022-10-10T04:41:50.278Z,85.17
2022-10-10T04:42:50.506Z,85.43
2022-10-10T04:43:50.246Z,85.87
2022-10-10T04:44:50.238Z,86.05
2022-10-10T04:45:50.223Z,86.23
2022-10-10T04:46:50.186Z,86.40
2022-10-10T04:47:50.211Z,85.96
2022-10-10T04:48:50.160Z,85.61
2022-10-10T04:49:50.156Z,85.70
2022-10-10T04:50:50.156Z,85.96
2022-10-10T04:51:50.135Z,85.70
2022-10-10T04:52:50.357Z,85.96
2022-10-10T04:53:50.672Z,85.96
2022-10-10T04:54:50.082Z,85.96
2022-10-10T04:55:50.079Z,86.58
2022-10-10T04:56:50.069Z,87.12
2022-10-10T04:57:50.066Z,87.67
2022-10-10T04:58:50.047Z,87.67
2022-10-10T04:59:50.045Z,88.13
2022-10-10T05:00:50.018Z,88.41
2022-10-10T05:01:50.024Z,87.40
2022-10-10T05:02:50.317Z,86.76
2022-10-10T05:03:49.988Z,86.85
2022-10-10T05:04:49.970Z,86.40
2022-10-10T05:05:49.981Z,86.23
2022-10-10T05:06:49.934Z,86.67
2022-10-10T05:07:55.156Z,86.40
2022-10-10T05:08:49.941Z,85.78
2022-10-10T05:09:49.890Z,85.87
2022-10-10T05:10:49.901Z,85.09
2022-10-10T05:11:49.867Z,85.09
2022-10-10T05:12:50.147Z,84.49
2022-10-10T05:13:49.841Z,84.92
2022-10-10T05:14:49.831Z,84.83
2022-10-10T05:15:49.835Z,84.32
2022-10-10T05:16:49.814Z,84.23
2022-10-10T05:17:49.808Z,83.98
2022-10-10T05:18:49.788Z,83.81
2022-10-10T05:19:49.766Z,83.73
2022-10-10T05:20:49.760Z,83.81
2022-10-10T05:21:49.753Z,83.89
2022-10-10T05:22:50.082Z,83.73
2022-10-10T05:23:49.711Z,83.98
2022-10-10T05:24:49.708Z,84.15
2022-10-10T05:25:49.716Z,84.49
2022-10-10T05:26:49.665Z,85.09
2022-10-10T05:27:49.674Z,85.35
2022-10-10T05:28:49.668Z,85.43
2022-10-10T05:29:49.632Z,85.70
2022-10-10T05:30:49.612Z,85.87
2022-10-10T05:31:49.625Z,85.87
2022-10-10T05:32:49.954Z,86.67
2022-10-10T05:33:49.609Z,86.32
2022-10-10T05:34:49.560Z,86.40
2022-10-10T05:35:49.576Z,86.40
2022-10-10T05:36:49.550Z,87.03
2022-10-10T05:37:49.533Z,87.12
2022-10-10T05:38:49.529Z,87.58
2022-10-10T05:39:54.376Z,87.03
2022-10-10T05:40:49.501Z,86.94
2022-10-10T05:41:49.494Z,87.03
2022-10-10T05:42:49.780Z,86.58
2022-10-10T05:43:49.458Z,86.32
2022-10-10T05:44:49.456Z,86.14
2022-10-10T05:45:49.419Z,85.35
2022-10-10T05:46:49.419Z,84.66
2022-10-10T05:47:49.424Z,85.00
2022-10-10T05:48:49.380Z,84.66
2022-10-10T05:49:49.378Z,83.48
2022-10-10T05:50:49.372Z,83.48
2022-10-10T05:51:49.400Z,83.06
2022-10-10T05:52:49.731Z,82.73
2022-10-10T05:53:49.354Z,83.06
2022-10-10T05:54:49.312Z,83.14
2022-10-10T05:55:49.311Z,83.39
2022-10-10T05:56:49.294Z,83.23
2022-10-10T05:57:49.284Z,83.31
2022-10-10T05:58:49.246Z,83.73
2022-10-10T05:59:49.248Z,83.73
2022-10-10T06:00:49.240Z,84.15
2022-10-10T06:01:49.211Z,83.06
2022-10-10T06:02:49.642Z,83.48
2022-10-10T06:03:49.206Z,83.89
2022-10-10T06:04:49.195Z,84.40
2022-10-10T06:05:49.178Z,85.35
2022-10-10T06:06:49.179Z,86.58
2022-10-10T06:08:09.186Z,87.21
2022-10-10T06:08:49.126Z,88.88
2022-10-10T06:09:49.118Z,90.42
2022-10-10T06:10:49.102Z,92.00
2022-10-10T06:11:49.090Z,92.61
2022-10-10T06:12:49.434Z,93.55
2022-10-10T06:13:49.076Z,94.92
2022-10-10T06:14:49.054Z,94.90
2022-10-10T06:15:49.048Z,95.28
2022-10-10T06:16:49.013Z,96.88
2022-10-10T06:17:49.029Z,98.01
2022-10-10T06:18:49.003Z,98.94
2022-10-10T06:19:48.998Z,100.90
2022-10-10T06:20:48.988Z,102.70
2022-10-10T06:21:48.975Z,103.46
2022-10-10T06:22:49.251Z,104.23
2022-10-10T06:23:48.926Z,104.95
2022-10-10T06:24:52.906Z,104.95
2022-10-10T06:25:48.898Z,105.08
2022-10-10T06:26:48.882Z,104.95
2022-10-10T06:27:48.901Z,104.82
2022-10-10T06:28:48.914Z,103.71
2022-10-10T06:29:48.866Z,103.08
2022-10-10T06:30:48.834Z,102.01
2022-10-10T06:31:49.085Z,101.45
2022-10-10T06:32:50.845Z,100.90
2022-10-10T06:33:48.810Z,101.39
2022-10-10T06:34:48.785Z,100.66
2022-10-10T06:35:48.766Z,100.36
2022-10-10T06:36:48.767Z,99.58
2022-10-10T06:37:48.742Z,99.29
2022-10-10T06:38:48.740Z,98.94
2022-10-10T06:39:48.748Z,98.18
2022-10-10T06:40:48.715Z,98.18
2022-10-10T06:41:48.713Z,98.07
2022-10-10T06:42:48.986Z,98.24
2022-10-10T06:43:48.680Z,98.59
2022-10-10T06:44:48.671Z,99.76
2022-10-10T06:45:48.635Z,99.94
2022-10-10T06:46:48.652Z,101.58
2022-10-10T06:47:48.637Z,103.08
2022-10-10T06:48:48.620Z,104.82
2022-10-10T06:49:48.608Z,109.12
2022-10-10T06:50:48.569Z,111.67
2022-10-10T06:51:48.584Z,114.18
2022-10-10T06:52:48.899Z,116.00
2022-10-10T06:53:48.552Z,120.24
2022-10-10T06:54:48.517Z,124.63
2022-10-10T06:55:48.534Z,128.75
2022-10-10T06:56:48.514Z,131.89
2022-10-10T06:57:48.480Z,135.96
2022-10-10T06:58:48.471Z,140.28
2022-10-10T06:59:48.474Z,144.15
2022-10-10T07:00:48.435Z,147.19
2022-10-10T07:01:48.500Z,151.31
2022-10-10T07:02:48.731Z,151.31
2022-10-10T07:03:48.430Z,151.17
2022-10-10T07:04:48.400Z,154.80
2022-10-10T07:05:48.374Z,158.47
2022-10-10T07:06:48.364Z,164.05
2022-10-10T07:07:48.359Z,175.39
2022-10-10T07:08:48.329Z,186.52
2022-10-10T07:09:48.328Z,195.15
2022-10-10T07:10:48.313Z,202.35
2022-10-10T07:11:48.320Z,210.09
2022-10-10T07:12:48.302Z,220.36
2022-10-10T07:13:48.270Z,232.16
2022-10-10T07:14:48.303Z,243.85
2022-10-10T07:15:48.249Z,253.03
2022-10-10T07:16:48.227Z,263.35
2022-10-10T07:17:53.415Z,266.33
2022-10-10T07:18:48.207Z,267.63
2022-10-10T07:19:48.215Z,270.04
2022-10-10T07:20:48.205Z,277.55
2022-10-10T07:21:48.164Z,283.04
2022-10-10T07:22:48.360Z,283.28
2022-10-10T07:23:48.140Z,280.39
2022-10-10T07:24:48.144Z,281.11
2022-10-10T07:25:48.130Z,285.00
2022-10-10T07:26:48.137Z,291.56
2022-10-10T07:27:48.119Z,295.48
2022-10-10T07:28:48.112Z,292.33
2022-10-10T07:29:48.059Z,293.64
2022-10-10T07:30:48.072Z,291.04
2022-10-10T07:31:48.051Z,282.31
2022-10-10T07:32:48.300Z,277.79
2022-10-10T07:33:50.429Z,275.46
2022-10-10T07:34:47.987Z,270.93
2022-10-10T07:35:47.974Z,273.86
2022-10-10T07:36:47.965Z,276.16
2022-10-10T07:37:47.968Z,282.07
2022-10-10T07:38:47.956Z,282.80
2022-10-10T07:39:47.926Z,287.99
2022-10-10T07:40:47.919Z,290.79
2022-10-10T07:41:47.934Z,289.51
2022-10-10T07:42:48.005Z,288.49
2022-10-10T07:43:47.931Z,290.02
2022-10-10T07:44:47.918Z,291.82
2022-10-10T07:45:47.868Z,294.42
2022-10-10T07:46:47.864Z,295.48
2022-10-10T07:47:47.992Z,297.08
2022-10-10T07:48:47.826Z,297.62
2022-10-10T07:49:47.806Z,301.43
2022-10-10T07:50:47.795Z,304.50
2022-10-10T07:51:47.798Z,306.77
2022-10-10T07:52:47.748Z,319.57
2022-10-10T07:53:47.754Z,324.61
2022-10-10T07:54:47.773Z,333.14
2022-10-10T07:55:47.708Z,339.67
2022-10-10T07:56:47.720Z,347.19
2022-10-10T07:57:52.498Z,351.26
2022-10-10T07:58:47.688Z,358.53
2022-10-10T07:59:47.690Z,363.27
2022-10-10T08:00:47.664Z,362.08
2022-10-10T08:01:47.678Z,365.69
2022-10-10T08:02:47.624Z,367.33
2022-10-10T08:03:47.682Z,373.58
2022-10-10T08:04:47.663Z,374.00
2022-10-10T08:05:47.652Z,384.45
2022-10-10T08:06:47.649Z,393.95
2022-10-10T08:07:47.563Z,398.89
2022-10-10T08:08:51.386Z,400.80
2022-10-10T08:09:47.565Z,404.92
2022-10-10T08:10:47.536Z,403.70
2022-10-10T08:11:47.573Z,403.21
2022-10-10T08:12:47.531Z,399.60
2022-10-10T08:13:47.493Z,397.23
2022-10-10T08:14:47.513Z,396.99
2022-10-10T08:15:47.448Z,393.72
2022-10-10T08:16:47.476Z,394.19
2022-10-10T08:17:47.466Z,392.57
2022-10-10T08:18:47.426Z,385.11
2022-10-10T08:19:47.420Z,383.57
2022-10-10T08:20:47.409Z,380.08
2022-10-10T08:21:47.423Z,374.42
2022-10-10T08:22:47.364Z,372.31
2022-10-10T08:23:47.374Z,375.28
2022-10-10T08:24:47.350Z,381.82
2022-10-10T08:25:47.335Z,393.95
2022-10-10T08:26:47.321Z,396.99
2022-10-10T08:27:47.320Z,394.89
2022-10-10T08:28:47.387Z,396.05
2022-10-10T08:29:47.286Z,396.52
2022-10-10T08:30:47.274Z,393.95
2022-10-10T08:31:47.250Z,391.65
2022-10-10T08:32:47.237Z,400.08
2022-10-10T08:33:47.216Z,401.04
2022-10-10T08:34:47.281Z,388.69
2022-10-10T08:35:47.180Z,411.14
2022-10-10T08:36:47.171Z,440.93
2022-10-10T08:37:47.172Z,472.02
2022-10-10T08:38:47.165Z,495.07
2022-10-10T08:39:47.209Z,527.86
2022-10-10T08:40:47.155Z,550.89
2022-10-10T08:41:47.159Z,582.03
2022-10-10T08:42:52.527Z,606.83
2022-10-10T08:43:47.116Z,626.71
2022-10-10T08:44:47.108Z,641.73
2022-10-10T08:45:47.065Z,653.01
2022-10-10T08:46:47.060Z,666.66
2022-10-10T08:47:47.058Z,675.41
2022-10-10T08:48:47.036Z,690.74
2022-10-10T08:49:48.009Z,694.33
2022-10-10T08:50:47.039Z,707.54
2022-10-10T08:51:47.010Z,726.74
2022-10-10T08:52:47.020Z,733.11
2022-10-10T08:53:47.043Z,740.41
2022-10-10T08:54:47.063Z,743.70
2022-10-10T08:55:46.964Z,740.41
2022-10-10T08:56:46.950Z,730.71
2022-10-10T08:57:46.944Z,733.11
2022-10-10T08:58:46.987Z,736.34
2022-10-10T08:59:46.931Z,737.96
2022-10-10T09:00:46.948Z,741.23
2022-10-10T09:02:18.666Z,754.93
2022-10-10T09:02:54.629Z,764.84
2022-10-10T09:03:46.953Z,763.53
2022-10-10T09:04:46.848Z,756.21
2022-10-10T09:05:46.818Z,746.93
2022-10-10T09:06:46.799Z,718.94
2022-10-10T09:07:46.773Z,717.40
2022-10-10T09:08:46.751Z,697.95
2022-10-10T09:09:46.755Z,690.74
2022-10-10T09:10:46.724Z,688.61
2022-10-10T09:11:46.730Z,700.87
2022-10-10T09:12:46.723Z,709.79
2022-10-10T09:13:46.679Z,720.48
2022-10-10T09:14:46.688Z,732.31
2022-10-10T09:15:46.648Z,755.78
2022-10-10T09:16:46.700Z,770.56
2022-10-10T09:17:46.734Z,799.05
2022-10-10T09:18:46.652Z,813.11
2022-10-10T09:19:46.601Z,830.23
2022-10-10T09:20:46.588Z,848.64
2022-10-10T09:21:46.591Z,858.97
2022-10-10T09:22:46.641Z,857.87
2022-10-10T09:23:46.574Z,871.83
2022-10-10T09:24:46.535Z,875.82
2022-10-10T09:25:46.520Z,892.74
2022-10-10T09:26:46.511Z,912.81
2022-10-10T09:27:46.509Z,931.20
2022-10-10T09:28:46.562Z,943.66
2022-10-10T09:29:46.470Z,957.83
2022-10-10T09:30:46.459Z,966.81
2022-10-10T09:31:46.481Z,972.42
2022-10-10T09:32:46.442Z,993.33
2022-10-10T09:33:46.435Z,1016.69
2022-10-10T09:34:46.417Z,1048.51
2022-10-10T09:35:46.406Z,1046.88
2022-10-10T09:36:46.402Z,1060.97
2022-10-10T09:37:47.919Z,1072.86
2022-10-10T09:38:46.374Z,1097.46
2022-10-10T09:39:46.346Z,1080.65
2022-10-10T09:40:46.349Z,1088.55
2022-10-10T09:41:46.324Z,1095.67
2022-10-10T09:42:46.323Z,1124.16
2022-10-10T09:43:46.312Z,1113.88
2022-10-10T09:44:46.323Z,1106.52
2022-10-10T09:45:46.277Z,1108.35
2022-10-10T09:46:46.262Z,1101.97
2022-10-10T09:47:46.243Z,1107.44
2022-10-10T09:48:46.222Z,1114.81
2022-10-10T09:49:46.289Z,1110.19
2022-10-10T09:50:46.213Z,1114.81
2022-10-10T09:51:46.246Z,1114.81
2022-10-10T09:52:46.208Z,1092.09
2022-10-10T09:53:46.181Z,1076.31
2022-10-10T09:54:46.145Z,1054.29
2022-10-10T09:55:46.178Z,1015.15
2022-10-10T09:56:46.137Z,1000.00
2022-10-10T09:57:46.133Z,968.91
2022-10-10T09:58:46.138Z,948.34
2022-10-10T09:59:46.175Z,930.55
2022-10-10T10:00:46.139Z,907.86
2022-10-10T10:01:46.094Z,901.14
2022-10-10T10:02:46.042Z,893.93
2022-10-10T10:03:46.035Z,891.55
2022-10-10T10:04:46.032Z,885.66
2022-10-10T10:05:45.989Z,878.11
2022-10-10T10:06:45.982Z,884.49
2022-10-10T10:07:45.991Z,875.82
2022-10-10T10:08:49.856Z,882.74
2022-10-10T10:09:45.954Z,891.55
2022-10-10T10:10:45.937Z,909.09
2022-10-10T10:11:45.941Z,923.50
2022-10-10T10:12:45.915Z,937.06
2022-10-10T10:13:45.906Z,941.01
2022-10-10T10:14:45.889Z,947.67
2022-10-10T10:15:45.860Z,965.42
2022-10-10T10:16:45.851Z,980.25
2022-10-10T10:17:45.831Z,997.77
2022-10-10T10:18:45.850Z,1028.40
2022-10-10T10:19:45.927Z,1054.29
2022-10-10T10:20:45.798Z,1065.18
2022-10-10T10:21:45.783Z,1089.43
2022-10-10T10:22:45.855Z,1094.77
2022-10-10T10:23:45.754Z,1129.85
2022-10-10T10:24:45.749Z,1140.43
2022-10-10T10:25:45.725Z,1153.18
2022-10-10T10:26:45.750Z,1142.37
2022-10-10T10:27:45.699Z,1143.34
2022-10-10T10:28:45.789Z,1143.34
2022-10-10T10:29:45.673Z,1140.43
2022-10-10T10:30:45.672Z,1137.52
2022-10-10T10:31:45.646Z,1113.88
2022-10-10T10:32:45.662Z,1119.46
2022-10-10T10:33:45.626Z,1092.09
2022-10-10T10:34:45.628Z,1072.86
2022-10-10T10:35:45.609Z,1065.18
2022-10-10T10:36:45.606Z,1066.88
2022-10-10T10:37:45.572Z,1035.55
2022-10-10T10:38:45.559Z,1036.35
2022-10-10T10:39:45.556Z,1029.19
2022-10-10T10:40:45.537Z,1055.95
2022-10-10T10:41:45.764Z,1087.66
2022-10-10T10:42:45.547Z,1133.67
2022-10-10T10:43:45.497Z,1174.41
2022-10-10T10:44:45.482Z,1225.98
2022-10-10T10:45:45.462Z,1267.74
2022-10-10T10:46:45.474Z,1306.04
2022-10-10T10:47:45.460Z,1311.15
2022-10-10T10:48:45.448Z,1321.50
2022-10-10T10:49:45.430Z,1295.94
2022-10-10T10:50:45.425Z,1292.19
2022-10-10T10:51:45.402Z,1277.41
2022-10-10T10:52:45.394Z,1245.35
2022-10-10T10:53:45.368Z,1230.49
2022-10-10T10:54:45.653Z,1222.63
2022-10-10T10:55:45.334Z,1197.50
2022-10-10T10:56:45.352Z,1211.57
2022-10-10T10:58:22.397Z,1170.31
2022-10-10T11:00:32.995Z,1147.26
2022-10-10T11:01:28.003Z,1172.35
2022-10-10T11:01:56.041Z,1205.04
2022-10-10T11:02:59.548Z,1228.23
2022-10-10T11:05:19.393Z,1239.59
2022-10-10T11:05:40.569Z,1277.41
2022-10-10T11:05:46.223Z,1338.66
2022-10-10T11:06:59.955Z,1367.35
2022-10-10T11:07:45.259Z,1404.61
2022-10-10T11:08:45.227Z,1412.01
2022-10-10T11:09:50.109Z,1437.77
2022-10-10T11:10:45.172Z,1439.31
2022-10-10T11:11:45.120Z,1469.30
2022-10-10T11:12:45.123Z,1505.62
2022-10-10T11:13:45.112Z,1509.01
2022-10-10T11:14:45.122Z,1506.46
2022-10-10T11:16:05.481Z,1521.86
2022-10-10T11:16:48.455Z,1533.18
2022-10-10T11:17:45.043Z,1521.00
2022-10-10T11:18:45.072Z,1536.70
2022-10-10T11:19:45.037Z,1537.58
2022-10-10T11:20:45.049Z,1533.18
2022-10-10T11:21:44.998Z,1520.14
2022-10-10T11:32:22.058Z,1499.72
2022-10-10T11:32:27.707Z,2412.24
2022-10-10T11:33:27.685Z,1878.06
2022-10-10T11:34:27.702Z,1681.30
2022-10-10T11:35:27.669Z,1597.14
2022-10-10T11:36:27.653Z,1567.25
2022-10-10T11:37:27.621Z,1542.00
2022-10-10T11:38:27.645Z,1495.54
2022-10-10T11:39:27.584Z,1461.29
2022-10-10T11:40:27.578Z,1407.56
2022-10-10T11:41:27.563Z,1394.38
2022-10-10T11:42:27.564Z,1388.60
2022-10-10T11:43:27.562Z,1380.02
2022-10-10T11:44:27.517Z,1417.99
2022-10-10T11:45:27.523Z,1439.31
2022-10-10T11:46:27.522Z,1469.30
2022-10-10T11:47:27.475Z,1498.88
2022-10-10T11:48:27.505Z,1499.72
2022-10-10T11:49:27.449Z,1514.12
2022-10-10T11:50:27.485Z,1541.11
2022-10-10T11:51:27.441Z,1541.11
2022-10-10T11:52:35.127Z,1560.86
2022-10-10T11:53:27.407Z,1578.33
2022-10-10T11:54:27.397Z,1602.87
2022-10-10T11:55:27.379Z,1600.00
2022-10-10T11:56:27.401Z,1600.95
2022-10-10T11:57:27.370Z,1616.41
2022-10-10T11:58:27.338Z,1596.19
2022-10-10T11:59:27.345Z,1600.00
2022-10-10T12:00:27.330Z,1583.92
2022-10-10T12:01:27.295Z,1577.40
2022-10-10T12:02:28.131Z,1595.24
2022-10-10T12:03:27.301Z,1593.34
2022-10-10T12:04:27.271Z,1617.38
2022-10-10T12:05:27.246Z,1635.14
2022-10-10T12:06:27.260Z,1632.16
2022-10-10T12:07:27.241Z,1662.53
2022-10-10T12:08:27.215Z,1655.34
2022-10-10T12:09:27.217Z,1665.63
2022-10-10T12:10:27.218Z,1671.86
2022-10-10T12:11:27.201Z,1662.53
2022-10-10T12:12:27.284Z,1642.16
2022-10-10T12:13:27.183Z,1651.26
2022-10-10T12:14:27.141Z,1650.25
2022-10-10T12:15:27.136Z,1624.24
2022-10-10T12:16:30.570Z,1593.34
2022-10-10T12:17:27.118Z,1599.05
2022-10-10T12:18:27.094Z,1600.00
2022-10-10T12:19:27.067Z,1593.34
2022-10-10T12:20:27.059Z,1580.19
2022-10-10T12:21:27.069Z,1576.47
2022-10-10T12:22:27.040Z,1575.54
2022-10-10T12:23:27.052Z,1569.09
2022-10-10T12:24:27.037Z,1575.54
2022-10-10T12:25:27.020Z,1601.91
2022-10-10T12:26:26.994Z,1627.20
2022-10-10T12:27:26.999Z,1618.36
2022-10-10T12:28:27.053Z,1611.55
2022-10-10T12:29:26.957Z,1584.86
2022-10-10T12:30:26.953Z,1588.62
2022-10-10T12:31:26.977Z,1609.61
2022-10-10T12:32:26.915Z,1588.62
2022-10-10T12:33:26.921Z,1590.50
2022-10-10T12:34:26.886Z,1583.92
2022-10-10T12:35:26.887Z,1573.69
2022-10-10T12:36:26.880Z,1564.51
2022-10-10T12:37:26.850Z,1570.93
2022-10-10T12:38:26.943Z,1555.43
2022-10-10T12:39:26.870Z,1551.82
2022-10-10T12:40:26.827Z,1562.68
2022-10-10T12:41:26.790Z,1593.34